Time;durP1;ratioP1;P1;durP2;ratioP2;P2;SDS_P1;SDS_P2;PMS_P1;PMS_P2;Temp;Humidity;BMP_temperature;BMP_pressure;BME280_temperature;BME280_humidity;BME280_pressure;Samples;Min_cycle;Max_cycle;Signal;HPM_P1;HPM_P2
2021/12/02 00:01:54;;;;;;;13.00;1.13;;;6.00;97.40;;;;;;5093177;28;20055;-82
2021/12/02 00:25:59;;;;;;;9.65;0.75;;;5.90;97.50;;;;;;4946226;28;20055;-82
2021/12/02 00:28:27;;;;;;;5.80;0.70;;;6.00;97.80;;;;;;4938030;29;20066;-82
2021/12/02 00:31:00;;;;;;;8.60;0.95;;;6.00;97.60;;;;;;4954606;29;20075;-82
2021/12/02 00:33:29;;;;;;;4.72;0.63;;;6.10;97.80;;;;;;4938258;29;20054;-82
2021/12/02 00:35:55;;;;;;;7.22;0.80;;;6.20;97.80;;;;;;4953944;29;20043;-82
2021/12/02 00:38:23;;;;;;;7.07;0.52;;;6.10;97.50;;;;;;4922561;29;20546;-82
2021/12/02 00:40:50;;;;;;;15.60;1.00;;;6.10;97.70;;;;;;4938838;29;20051;-82
2021/12/02 00:43:17;;;;;;;6.70;0.60;;;6.10;97.40;;;;;;4938254;29;20083;-82
2021/12/02 00:45:44;;;;;;;5.45;0.70;;;6.00;97.30;;;;;;4954470;28;20457;-82
2021/12/02 00:48:12;;;;;;;12.30;1.52;;;5.90;97.40;;;;;;4954183;28;20043;-82
2021/12/02 00:50:41;;;;;;;9.13;0.77;;;5.90;97.30;;;;;;4954164;29;20043;-82
2021/12/02 00:53:07;;;;;;;9.30;0.90;;;5.60;97.40;;;;;;4954316;29;20090;-82
2021/12/02 00:55:39;;;;;;;7.28;0.90;;;5.50;97.80;;;;;;4953532;28;20047;-82
2021/12/02 00:58:06;;;;;;;14.55;1.63;;;5.50;97.70;;;;;;4938642;29;20101;-82
2021/12/02 01:00:33;;;;;;;13.05;1.00;;;5.50;97.60;;;;;;4954096;28;20090;-82
2021/12/02 01:03:02;;;;;;;12.80;1.48;;;5.50;97.60;;;;;;4953594;29;20083;-82
2021/12/02 01:05:30;;;;;;;14.50;1.40;;;5.50;97.60;;;;;;4951269;28;20047;-82
2021/12/02 01:08:01;;;;;;;10.50;1.05;;;5.50;97.60;;;;;;4936517;29;20047;-81
2021/12/02 01:10:32;;;;;;;11.02;1.15;;;5.60;97.60;;;;;;4953948;29;20087;-82
2021/12/02 01:12:58;;;;;;;10.85;1.17;;;5.60;97.60;;;;;;4954010;29;20058;-82
2021/12/02 01:15:25;;;;;;;11.07;1.00;;;5.70;97.60;;;;;;4953881;29;20047;-82
2021/12/02 01:17:52;;;;;;;8.23;0.82;;;5.70;97.60;;;;;;4954003;29;20178;-82
2021/12/02 01:20:18;;;;;;;11.25;0.85;;;5.80;97.60;;;;;;4954139;29;20163;-82
2021/12/02 01:22:47;;;;;;;5.45;0.88;;;5.90;97.60;;;;;;4953959;29;20055;-82
2021/12/02 01:25:16;;;;;;;8.95;0.60;;;5.90;97.50;;;;;;4952994;29;20414;-82
2021/12/02 01:27:45;;;;;;;9.88;0.70;;;5.80;97.20;;;;;;4954172;29;20059;-82
2021/12/02 01:30:11;;;;;;;8.93;0.50;;;5.60;97.20;;;;;;4953917;29;20051;-82
2021/12/02 01:32:40;;;;;;;2.70;0.30;;;5.50;97.30;;;;;;4953857;29;20105;-82
2021/12/02 01:35:07;;;;;;;3.95;0.73;;;5.40;97.20;;;;;;4953777;29;20053;-82
2021/12/02 01:37:33;;;;;;;6.63;0.50;;;5.20;97.60;;;;;;4954068;29;20047;-82
2021/12/02 01:40:00;;;;;;;2.00;0.28;;;5.20;98.00;;;;;;4953760;29;20139;-82
2021/12/02 01:42:28;;;;;;;8.38;0.57;;;5.10;98.10;;;;;;4953947;29;20062;-82
2021/12/02 01:44:57;;;;;;;5.78;0.30;;;5.10;98.20;;;;;;4939004;29;20134;-82
2021/12/02 01:47:28;;;;;;;6.45;0.38;;;5.00;98.30;;;;;;4957319;29;20406;-82
2021/12/02 01:50:03;;;;;;;5.93;0.50;;;5.00;98.40;;;;;;4957091;29;20054;-82
2021/12/02 01:52:31;;;;;;;3.97;0.30;;;5.20;98.50;;;;;;4957477;29;20047;-82
2021/12/02 01:55:24;;;;;;;3.80;0.30;;;5.20;98.50;;;;;;4940579;29;20058;-82
2021/12/02 01:58:02;;;;;;;4.05;0.38;;;5.20;98.60;;;;;;4940314;29;20372;-82
2021/12/02 02:00:41;;;;;;;7.15;0.40;;;5.30;98.70;;;;;;4957195;29;20047;-82
2021/12/02 02:03:09;;;;;;;4.35;0.28;;;5.30;98.60;;;;;;4957278;29;20047;-82
2021/12/02 02:05:36;;;;;;;7.13;0.40;;;5.30;98.50;;;;;;4941112;29;20086;-82
2021/12/02 02:08:05;;;;;;;5.22;0.40;;;5.40;98.50;;;;;;4956624;29;20059;-82
2021/12/02 02:10:39;;;;;;;6.40;0.30;;;5.50;98.60;;;;;;4957094;29;20059;-82
2021/12/02 02:13:07;;;;;;;4.95;0.40;;;5.60;98.40;;;;;;4957007;29;20047;-82
2021/12/02 02:15:34;;;;;;;7.80;0.93;;;5.50;98.50;;;;;;4956458;29;20047;-82
2021/12/02 02:18:07;;;;;;;7.70;0.70;;;5.50;98.70;;;;;;4957041;29;20051;-82
2021/12/02 02:20:40;;;;;;;9.52;0.68;;;5.50;98.60;;;;;;4940509;29;20087;-82
2021/12/02 02:23:10;;;;;;;12.70;0.63;;;5.50;98.70;;;;;;4941421;29;20052;-82
2021/12/02 02:25:36;;;;;;;7.07;0.60;;;5.40;98.70;;;;;;4939561;29;20172;-82
2021/12/02 02:28:03;;;;;;;5.20;0.30;;;5.40;98.80;;;;;;4940489;29;20055;-82
2021/12/02 02:30:28;;;;;;;10.77;1.50;;;5.20;99.00;;;;;;4956582;29;20142;-82
2021/12/02 02:32:55;;;;;;;4.53;0.52;;;5.10;99.10;;;;;;4940230;29;20467;-82
2021/12/02 02:35:20;;;;;;;10.38;0.68;;;4.90;99.40;;;;;;4956280;29;20047;-82
2021/12/02 02:37:46;;;;;;;7.18;0.63;;;4.80;99.60;;;;;;4956253;29;20491;-82
2021/12/02 02:40:14;;;;;;;6.38;0.60;;;4.70;99.70;;;;;;4956205;29;20058;-82
2021/12/02 02:42:44;;;;;;;6.93;0.70;;;4.80;99.70;;;;;;4956520;29;20211;-82
2021/12/02 02:45:10;;;;;;;6.32;0.38;;;4.90;99.80;;;;;;4956219;29;20533;-82
2021/12/02 02:47:36;;;;;;;4.32;0.52;;;4.70;99.90;;;;;;4955820;29;20519;-82
2021/12/02 02:50:02;;;;;;;2.40;0.40;;;4.60;99.90;;;;;;4956906;29;20126;-82
2021/12/02 02:52:31;;;;;;;10.57;0.63;;;4.70;99.90;;;;;;4940267;29;20134;-82
2021/12/02 02:54:57;;;;;;;9.95;0.75;;;4.70;99.90;;;;;;4955500;29;20047;-82
2021/12/02 02:57:26;;;;;;;8.90;0.55;;;4.80;99.90;;;;;;4955156;28;20051;-82
2021/12/02 03:00:30;;;;;;;8.32;0.55;;;4.80;99.90;;;;;;4940555;29;20509;-82
2021/12/02 03:03:00;;;;;;;8.75;0.68;;;4.90;99.90;;;;;;4955547;29;20047;-82
2021/12/02 03:05:44;;;;;;;10.27;0.60;;;5.00;99.90;;;;;;4939950;29;20048;-82
2021/12/02 03:08:19;;;;;;;5.85;0.52;;;5.10;99.90;;;;;;4955798;29;20510;-82
2021/12/02 03:10:54;;;;;;;7.68;0.40;;;5.00;99.90;;;;;;4939980;29;20090;-82
2021/12/02 03:13:35;;;;;;;2.47;0.30;;;4.70;99.90;;;;;;4956181;28;20483;-83
2021/12/02 03:18:44;;;;;;;1.73;0.20;;;4.70;99.90;;;;;;4955583;29;20054;-83
2021/12/02 03:21:21;;;;;;;4.60;0.30;;;4.60;99.90;;;;;;4939750;29;20047;-82
2021/12/02 03:23:52;;;;;;;3.50;0.10;;;4.40;99.90;;;;;;4939628;29;20047;-83
2021/12/02 03:26:18;;;;;;;3.92;0.20;;;4.40;99.90;;;;;;4955531;29;20054;-83
2021/12/02 03:28:45;;;;;;;4.05;0.68;;;4.40;99.90;;;;;;4955542;29;20054;-83
2021/12/02 03:31:11;;;;;;;4.45;0.20;;;4.40;99.90;;;;;;4955417;29;20043;-83
2021/12/02 03:33:37;;;;;;;7.00;0.30;;;4.50;99.90;;;;;;4955267;29;20050;-83
2021/12/02 03:36:03;;;;;;;1.58;0.20;;;4.50;99.90;;;;;;4955111;29;20047;-83
2021/12/02 03:38:28;;;;;;;5.13;0.20;;;4.50;99.90;;;;;;4955082;29;20479;-83
2021/12/02 03:40:54;;;;;;;5.03;0.22;;;4.60;99.90;;;;;;4955573;29;20047;-83
2021/12/02 03:43:21;;;;;;;2.20;0.35;;;4.40;99.90;;;;;;4955509;29;20390;-83
2021/12/02 03:45:47;;;;;;;3.08;0.10;;;4.30;99.90;;;;;;4955173;29;20054;-82
2021/12/02 03:48:13;;;;;;;2.75;0.43;;;4.20;99.90;;;;;;4955393;29;20058;-83
2021/12/02 03:50:39;;;;;;;0.30;0.00;;;4.10;99.90;;;;;;4955217;29;20047;-83
2021/12/02 03:53:05;;;;;;;1.23;0.10;;;4.10;99.90;;;;;;4954975;29;20114;-83
2021/12/02 03:55:30;;;;;;;2.75;0.10;;;4.10;99.90;;;;;;4954331;29;20173;-83
2021/12/02 03:57:56;;;;;;;2.22;0.38;;;4.00;99.90;;;;;;4954938;29;20059;-83
2021/12/02 04:00:22;;;;;;;0.28;0.10;;;4.10;99.90;;;;;;4954563;29;20062;-83
2021/12/02 04:02:47;;;;;;;0.98;0.10;;;4.10;99.90;;;;;;4938893;29;20042;-82
2021/12/02 04:05:13;;;;;;;0.65;0.10;;;4.10;99.90;;;;;;4954908;29;20054;-83
2021/12/02 04:07:39;;;;;;;3.58;0.10;;;4.20;99.90;;;;;;4954097;28;20047;-83
2021/12/02 04:10:04;;;;;;;2.13;0.05;;;4.20;99.90;;;;;;4954610;29;20122;-83
2021/12/02 04:12:55;;;;;;;3.63;0.20;;;4.40;99.90;;;;;;4954566;29;20489;-83
2021/12/02 04:15:28;;;;;;;3.38;0.10;;;4.20;99.90;;;;;;4954823;29;20042;-83
2021/12/02 04:17:54;;;;;;;1.88;0.32;;;4.40;99.90;;;;;;4939800;29;20190;-83
2021/12/02 04:20:24;;;;;;;3.60;0.10;;;4.50;99.90;;;;;;4954899;29;20177;-83
2021/12/02 04:22:51;;;;;;;1.85;0.17;;;4.60;99.90;;;;;;4954440;29;20047;-83
2021/12/02 04:25:17;;;;;;;0.52;0.00;;;4.80;99.60;;;;;;4953984;29;20077;-83
2021/12/02 04:27:45;;;;;;;1.65;0.10;;;4.90;99.50;;;;;;4954604;29;20081;-83
2021/12/02 04:30:13;;;;;;;3.60;0.20;;;4.90;99.50;;;;;;4954472;29;20093;-83
2021/12/02 04:32:40;;;;;;;4.47;0.50;;;4.90;99.30;;;;;;4954318;29;20053;-83
2021/12/02 04:35:06;;;;;;;1.67;0.22;;;4.90;99.40;;;;;;4954338;29;20474;-83
2021/12/02 04:37:32;;;;;;;1.98;0.40;;;4.90;99.30;;;;;;4954186;29;20569;-83
2021/12/02 04:39:58;;;;;;;2.97;0.40;;;4.90;99.40;;;;;;4938226;29;20043;-83
2021/12/02 04:42:24;;;;;;;2.65;0.45;;;4.90;99.50;;;;;;4954398;29;20082;-83
2021/12/02 04:44:50;;;;;;;5.15;0.60;;;4.90;99.60;;;;;;4954313;29;20055;-82
2021/12/02 04:47:16;;;;;;;2.05;0.38;;;5.10;99.60;;;;;;4954371;29;20510;-83
2021/12/02 04:49:42;;;;;;;4.22;0.68;;;5.00;99.60;;;;;;4954473;29;20055;-83
2021/12/02 04:52:08;;;;;;;1.23;0.25;;;5.10;99.70;;;;;;4954300;29;20114;-83
2021/12/02 04:54:34;;;;;;;4.20;0.30;;;5.00;99.60;;;;;;4953733;29;20047;-83
2021/12/02 04:57:00;;;;;;;4.88;0.50;;;5.00;99.70;;;;;;4953982;29;20055;-83
2021/12/02 04:59:26;;;;;;;5.20;0.40;;;4.80;99.80;;;;;;4954448;29;20051;-83
2021/12/02 05:01:51;;;;;;;4.18;0.60;;;4.80;99.90;;;;;;4954225;29;20058;-83
2021/12/02 05:04:17;;;;;;;1.98;0.40;;;4.80;99.90;;;;;;4954008;29;20150;-83
2021/12/02 05:06:43;;;;;;;7.78;0.52;;;4.90;99.90;;;;;;4954293;29;20130;-83
2021/12/02 05:09:08;;;;;;;4.35;0.40;;;4.80;99.80;;;;;;4954135;29;20514;-83
2021/12/02 05:11:34;;;;;;;4.93;0.22;;;5.00;99.80;;;;;;4938075;29;20046;-83
2021/12/02 05:14:01;;;;;;;1.38;0.20;;;5.00;99.70;;;;;;4953823;29;20043;-83
2021/12/02 05:16:26;;;;;;;1.35;0.30;;;5.10;99.70;;;;;;4954629;29;20058;-84
2021/12/02 05:18:52;;;;;;;3.10;0.20;;;5.20;99.70;;;;;;4938163;29;20426;-83
2021/12/02 05:21:18;;;;;;;1.52;0.25;;;5.40;99.70;;;;;;4957459;29;20039;-84
2021/12/02 05:23:44;;;;;;;0.63;0.30;;;5.50;99.60;;;;;;4941293;29;20047;-83
2021/12/02 05:26:10;;;;;;;0.60;0.20;;;5.50;99.40;;;;;;4957020;29;20114;-83
2021/12/02 05:28:36;;;;;;;3.08;0.30;;;5.50;99.50;;;;;;4957352;29;20047;-84
2021/12/02 05:31:02;;;;;;;1.40;0.20;;;5.50;99.40;;;;;;4941479;29;20051;-84
2021/12/02 05:33:28;;;;;;;1.25;0.30;;;5.40;99.40;;;;;;4957576;29;20043;-84
2021/12/02 05:35:54;;;;;;;5.25;0.40;;;5.30;99.30;;;;;;4957045;29;20074;-84
2021/12/02 05:38:20;;;;;;;4.07;0.40;;;5.20;99.30;;;;;;4957508;29;20106;-84
2021/12/02 05:40:45;;;;;;;2.88;0.10;;;4.90;99.40;;;;;;4957108;29;20047;-84
2021/12/02 05:43:12;;;;;;;4.90;0.30;;;4.60;99.60;;;;;;4957463;29;20071;-84
2021/12/02 05:45:37;;;;;;;4.00;0.30;;;4.50;99.60;;;;;;4957376;29;20456;-84
2021/12/02 05:48:03;;;;;;;3.88;0.60;;;4.50;99.60;;;;;;4957230;29;20051;-84
2021/12/02 05:50:29;;;;;;;4.40;0.40;;;4.40;99.40;;;;;;4957218;29;20047;-84
2021/12/02 05:52:55;;;;;;;4.00;0.35;;;4.50;99.60;;;;;;4957357;29;20043;-83
2021/12/02 05:55:22;;;;;;;5.50;0.38;;;4.60;99.50;;;;;;4940403;29;20102;-84
2021/12/02 05:57:48;;;;;;;3.63;0.40;;;4.70;99.30;;;;;;4957462;29;20471;-84
2021/12/02 06:00:14;;;;;;;4.45;0.50;;;4.30;99.40;;;;;;4957126;29;20130;-84
2021/12/02 06:02:40;;;;;;;0.95;0.30;;;4.30;99.60;;;;;;4941115;29;20050;-84
2021/12/02 06:05:06;;;;;;;1.88;0.40;;;4.20;99.80;;;;;;4957350;29;20154;-85
2021/12/02 06:07:33;;;;;;;0.70;0.28;;;4.20;99.80;;;;;;4956888;29;20090;-83
2021/12/02 06:09:59;;;;;;;5.10;0.70;;;4.00;99.90;;;;;;4957020;29;20192;-84
2021/12/02 06:12:24;;;;;;;2.63;0.35;;;4.00;99.90;;;;;;4956779;29;20051;-84
2021/12/02 06:14:50;;;;;;;1.20;0.25;;;4.20;99.90;;;;;;4925233;29;20047;-84
2021/12/02 06:17:16;;;;;;;3.30;0.22;;;4.40;99.90;;;;;;4956662;29;20078;-84
2021/12/02 06:19:42;;;;;;;3.25;0.30;;;4.50;99.90;;;;;;4956832;29;20055;-84
2021/12/02 06:22:08;;;;;;;2.95;0.22;;;4.60;99.70;;;;;;4940856;29;20050;-84
2021/12/02 06:24:54;;;;;;;1.13;0.10;;;4.70;99.40;;;;;;4955911;29;20059;-84
2021/12/02 06:27:20;;;;;;;3.97;0.20;;;4.70;99.40;;;;;;4943653;29;20058;-84
2021/12/02 06:29:46;;;;;;;2.92;0.13;;;4.80;99.30;;;;;;4956746;29;20051;-84
2021/12/02 06:32:11;;;;;;;4.28;0.30;;;4.40;99.20;;;;;;4940450;29;20051;-83
2021/12/02 06:34:37;;;;;;;2.45;0.30;;;4.40;99.30;;;;;;4956145;29;20043;-84
2021/12/02 06:37:03;;;;;;;1.98;0.13;;;4.30;99.40;;;;;;4940313;29;21040;-83
2021/12/02 06:39:29;;;;;;;3.72;0.30;;;4.20;99.40;;;;;;4956496;29;20051;-83
2021/12/02 06:41:54;;;;;;;2.97;0.35;;;4.00;99.50;;;;;;4956667;29;20046;-83
2021/12/02 06:44:20;;;;;;;2.40;0.80;;;3.90;99.80;;;;;;4940406;29;20047;-83
2021/12/02 06:46:46;;;;;;;1.50;0.10;;;4.00;99.90;;;;;;4956105;29;20047;-83
2021/12/02 06:49:11;;;;;;;3.63;0.50;;;4.00;99.90;;;;;;4940097;29;20137;-83
2021/12/02 06:51:37;;;;;;;1.42;0.20;;;4.20;99.70;;;;;;4955790;29;20062;-83
2021/12/02 06:54:04;;;;;;;3.95;0.28;;;4.20;99.70;;;;;;4923940;29;20051;-82
2021/12/02 06:56:30;;;;;;;1.75;0.25;;;4.30;99.70;;;;;;4955909;29;20054;-83
2021/12/02 06:58:56;;;;;;;3.58;0.20;;;4.40;99.50;;;;;;4939841;29;20055;-83
2021/12/02 07:01:22;;;;;;;1.65;0.30;;;4.50;99.50;;;;;;4955844;29;20047;-83
2021/12/02 07:03:48;;;;;;;1.65;0.30;;;4.40;99.10;;;;;;4955877;29;20114;-83
2021/12/02 07:06:13;;;;;;;3.08;1.15;;;4.40;99.40;;;;;;4955603;29;20055;-83
2021/12/02 07:08:39;;;;;;;3.65;1.38;;;4.40;99.30;;;;;;4939855;29;20143;-83
2021/12/02 07:11:07;;;;;;;5.13;0.80;;;4.10;99.40;;;;;;4956122;29;20087;-83
2021/12/02 07:13:35;;;;;;;3.25;0.40;;;4.00;99.60;;;;;;4955530;29;20050;-83
2021/12/02 07:16:01;;;;;;;2.65;0.25;;;4.00;99.70;;;;;;4939421;29;20043;-83
2021/12/02 07:18:27;;;;;;;2.85;0.20;;;4.00;99.80;;;;;;4955419;29;20491;-83
2021/12/02 07:20:53;;;;;;;0.90;0.10;;;4.20;99.90;;;;;;4939587;29;20054;-83
2021/12/02 07:23:20;;;;;;;1.60;0.52;;;4.40;99.70;;;;;;4955723;29;20051;-82
2021/12/02 07:25:47;;;;;;;1.20;0.20;;;4.50;99.40;;;;;;4954734;29;20392;-82
2021/12/02 07:28:16;;;;;;;2.15;0.38;;;4.30;99.50;;;;;;4955427;29;20067;-83
2021/12/02 07:30:42;;;;;;;2.13;0.30;;;4.40;99.50;;;;;;4955466;29;20153;-83
2021/12/02 07:33:12;;;;;;;1.25;0.20;;;4.40;99.40;;;;;;4955479;29;20094;-82
2021/12/02 07:35:38;;;;;;;1.20;0.25;;;4.50;99.40;;;;;;4955163;29;20053;-83
2021/12/02 07:38:04;;;;;;;1.52;0.40;;;4.50;99.30;;;;;;4955570;29;20055;-83
2021/12/02 07:40:33;;;;;;;2.75;0.90;;;4.40;99.20;;;;;;4939246;29;20051;-83
2021/12/02 07:43:00;;;;;;;3.03;1.58;;;4.20;99.40;;;;;;4954435;28;20055;-83
2021/12/02 07:45:30;;;;;;;2.67;1.38;;;4.00;99.60;;;;;;4939158;29;20083;-83
2021/12/02 07:47:57;;;;;;;4.53;2.40;;;3.90;99.80;;;;;;4954953;29;20055;-83
2021/12/02 07:50:23;;;;;;;10.10;3.10;;;4.00;99.90;;;;;;4955051;29;20051;-83
2021/12/02 07:52:54;;;;;;;2.88;1.45;;;4.10;99.90;;;;;;4954985;29;20049;-84
2021/12/02 07:55:22;;;;;;;6.85;1.05;;;4.10;99.80;;;;;;4954446;29;20047;-83
2021/12/02 07:57:49;;;;;;;7.78;1.10;;;4.00;99.90;;;;;;4954676;29;20065;-83
2021/12/02 08:00:22;;;;;;;3.88;1.35;;;3.90;99.90;;;;;;4954632;29;20055;-84
2021/12/02 08:02:51;;;;;;;2.92;1.50;;;3.80;99.90;;;;;;4939439;29;20055;-83
2021/12/02 08:05:18;;;;;;;4.45;1.42;;;3.80;99.90;;;;;;4954845;29;20501;-83
2021/12/02 08:07:44;;;;;;;2.45;1.00;;;3.90;99.90;;;;;;4938931;29;20055;-83
2021/12/02 08:10:12;;;;;;;3.67;0.80;;;4.10;99.90;;;;;;4954545;29;20039;-83
2021/12/02 08:12:39;;;;;;;4.13;1.52;;;4.30;99.90;;;;;;4938699;29;20051;-84
2021/12/02 08:15:07;;;;;;;2.97;1.40;;;4.40;99.90;;;;;;4954544;29;20138;-84
2021/12/02 08:17:33;;;;;;;2.38;0.82;;;4.40;99.90;;;;;;4954804;29;20050;-84
2021/12/02 08:19:59;;;;;;;5.55;1.17;;;4.50;99.70;;;;;;4954591;29;20134;-84
2021/12/02 08:22:25;;;;;;;6.35;1.50;;;4.50;99.80;;;;;;4954558;29;20058;-75
2021/12/02 08:24:50;;;;;;;3.42;1.30;;;4.50;99.80;;;;;;4953955;29;20062;-78
2021/12/02 08:27:16;;;;;;;3.42;1.67;;;4.60;99.80;;;;;;4955174;28;20051;-75
2021/12/02 08:29:42;;;;;;;4.93;2.45;;;4.70;99.90;;;;;;4954664;29;20371;-74
2021/12/02 08:32:09;;;;;;;2.88;1.38;;;4.80;99.80;;;;;;4954441;29;20051;-74
2021/12/02 08:34:35;;;;;;;5.00;2.00;;;4.90;99.70;;;;;;4955402;28;20047;-74
2021/12/02 08:37:00;;;;;;;6.75;2.08;;;4.90;99.50;;;;;;4938501;29;20051;-74
2021/12/02 08:39:30;;;;;;;7.30;2.78;;;4.70;99.80;;;;;;4938268;29;20488;-74
2021/12/02 08:41:56;;;;;;;6.88;2.75;;;4.50;99.90;;;;;;4938732;29;20055;-73
2021/12/02 08:44:29;;;;;;;5.93;2.72;;;4.40;99.90;;;;;;4953866;29;20056;-74
2021/12/02 08:46:55;;;;;;;15.52;3.20;;;4.20;99.90;;;;;;4955057;29;20047;-72
2021/12/02 08:49:21;;;;;;;7.80;2.92;;;4.20;99.90;;;;;;4954267;29;20051;-76
2021/12/02 08:51:47;;;;;;;10.48;3.10;;;4.20;99.90;;;;;;4962505;29;20052;-74
2021/12/02 08:54:14;;;;;;;11.30;3.75;;;4.30;99.90;;;;;;4955480;28;20094;-73
2021/12/02 08:56:40;;;;;;;10.07;3.35;;;4.40;99.90;;;;;;4958066;29;20048;-73
2021/12/02 08:59:07;;;;;;;7.32;2.60;;;4.40;99.90;;;;;;4941893;29;20062;-72
2021/12/02 09:01:33;;;;;;;8.40;3.15;;;4.40;99.90;;;;;;4958170;29;20122;-72
2021/12/02 09:04:02;;;;;;;13.25;3.55;;;4.50;99.90;;;;;;4958242;29;20134;-72
2021/12/02 09:06:28;;;;;;;8.50;3.75;;;4.60;99.90;;;;;;4958123;29;20058;-72
2021/12/02 09:08:54;;;;;;;11.43;3.47;;;4.70;99.90;;;;;;4959124;29;20379;-72
2021/12/02 09:11:21;;;;;;;10.30;2.95;;;4.70;99.90;;;;;;4957725;29;20067;-73
2021/12/02 09:13:47;;;;;;;8.60;2.47;;;4.70;99.90;;;;;;4959039;28;20190;-72
2021/12/02 09:16:13;;;;;;;10.32;3.10;;;4.90;99.90;;;;;;4957659;29;20051;-72
2021/12/02 09:18:40;;;;;;;9.02;2.63;;;4.90;99.90;;;;;;4958009;29;20055;-72
2021/12/02 09:21:06;;;;;;;5.70;2.47;;;4.90;99.90;;;;;;4959790;28;20047;-75
2021/12/02 09:23:32;;;;;;;8.77;2.75;;;5.00;99.90;;;;;;4941510;29;20059;-75
2021/12/02 09:25:58;;;;;;;6.97;2.45;;;5.10;99.90;;;;;;4956727;29;20069;-75
2021/12/02 09:28:25;;;;;;;4.03;1.73;;;5.30;99.90;;;;;;4957573;29;20043;-75
2021/12/02 09:30:51;;;;;;;5.22;1.73;;;5.30;99.90;;;;;;4957795;29;20051;-75
2021/12/02 09:33:17;;;;;;;6.15;1.77;;;5.40;99.90;;;;;;4957587;29;20078;-75
2021/12/02 09:35:43;;;;;;;3.63;1.40;;;5.60;99.90;;;;;;4957374;29;20383;-75
2021/12/02 09:38:10;;;;;;;6.45;1.60;;;5.80;99.90;;;;;;4957297;29;20055;-76
2021/12/02 09:40:39;;;;;;;4.70;1.35;;;5.90;99.90;;;;;;4957558;29;20058;-74
2021/12/02 09:43:05;;;;;;;2.80;1.33;;;5.90;99.90;;;;;;4957703;29;20062;-75
2021/12/02 09:45:30;;;;;;;3.30;1.30;;;5.90;99.90;;;;;;4941128;29;20491;-75
2021/12/02 09:47:56;;;;;;;3.00;1.20;;;5.90;99.80;;;;;;4957606;29;20051;-75
2021/12/02 09:50:33;;;;;;;3.83;1.00;;;6.00;99.90;;;;;;4957206;29;20138;-75
2021/12/02 09:53:07;;;;;;;12.02;5.07;;;6.10;99.90;;;;;;4957314;29;20054;-75
2021/12/02 09:58:04;;;;;;;4.28;1.60;;;6.50;99.90;;;;;;4957068;29;20561;-76
2021/12/02 10:00:39;;;;;;;6.45;1.70;;;6.40;99.80;;;;;;4956941;29;20109;-75
2021/12/02 10:03:18;;;;;;;4.63;1.40;;;6.40;99.90;;;;;;4953277;29;20457;-76
2021/12/02 10:05:55;;;;;;;4.78;1.23;;;5.90;99.40;;;;;;4948975;28;20058;-75
2021/12/02 10:08:34;;;;;;;1.48;0.50;;;5.10;99.20;;;;;;4939259;29;20059;-77
2021/12/02 10:11:01;;;;;;;1.58;0.50;;;4.60;99.40;;;;;;4949941;29;20055;-76
2021/12/02 10:13:36;;;;;;;0.52;0.20;;;4.50;99.50;;;;;;4955224;28;20055;-76
2021/12/02 10:16:06;;;;;;;3.42;0.30;;;4.20;99.30;;;;;;4955413;29;20042;-75
2021/12/02 10:18:54;;;;;;;2.10;0.30;;;3.90;99.90;;;;;;4956997;28;20059;-75
2021/12/02 10:21:28;;;;;;;1.63;0.45;;;4.00;99.90;;;;;;4956591;29;20043;-75
2021/12/02 10:23:54;;;;;;;1.23;0.30;;;4.10;99.90;;;;;;4939623;28;20040;-74
2021/12/02 10:26:22;;;;;;;1.40;0.32;;;4.40;99.90;;;;;;4955317;29;20114;-74
2021/12/02 10:28:51;;;;;;;0.90;0.20;;;4.60;99.80;;;;;;4940483;29;20079;-74
2021/12/02 10:31:23;;;;;;;0.70;0.20;;;4.80;99.80;;;;;;4956105;29;20414;-74
2021/12/02 10:33:59;;;;;;;0.93;0.20;;;4.90;99.30;;;;;;4956545;29;20141;-74
2021/12/02 10:36:35;;;;;;;2.00;0.20;;;4.90;99.30;;;;;;4940005;29;20047;-74
2021/12/02 10:39:21;;;;;;;;;;;5.00;99.20;;;;;;4956639;28;20511;-74
2021/12/02 10:42:00;;;;;;;0.68;0.20;;;5.00;99.00;;;;;;4943601;29;19973;-72
2021/12/02 10:44:33;;;;;;;0.75;0.17;;;4.60;98.90;;;;;;4949962;29;20051;-74
2021/12/02 10:47:03;;;;;;;2.88;0.20;;;4.70;99.60;;;;;;4952745;29;20138;-74
2021/12/02 10:49:41;;;;;;;1.80;0.10;;;4.80;99.40;;;;;;4954004;29;20094;-73
2021/12/02 10:52:14;;;;;;;2.40;0.20;;;4.80;99.20;;;;;;4939004;29;20078;-73
2021/12/02 10:54:43;;;;;;;1.27;0.47;;;4.90;99.50;;;;;;4924781;29;20039;-74
2021/12/02 10:57:18;;;;;;;1.98;0.30;;;5.00;99.40;;;;;;4955990;28;20090;-73
2021/12/02 10:59:47;;;;;;;7.50;3.55;;;5.00;99.30;;;;;;4955823;28;20059;-73
2021/12/02 11:02:22;;;;;;;1.35;0.73;;;4.90;99.30;;;;;;4956329;28;20106;-73
2021/12/02 11:04:52;;;;;;;2.80;0.60;;;4.90;99.40;;;;;;4948295;28;20052;-74
2021/12/02 11:07:24;;;;;;;2.80;1.55;;;4.90;99.40;;;;;;4947025;29;20051;-74
2021/12/02 11:09:52;;;;;;;6.35;2.42;;;4.80;99.40;;;;;;4939831;29;20498;-74
2021/12/02 11:12:20;;;;;;;8.35;3.97;;;4.80;99.50;;;;;;4937036;29;20066;-73
2021/12/02 11:15:14;;;;;;;12.57;4.35;;;4.70;99.60;;;;;;4936433;29;20439;-74
2021/12/02 11:17:45;;;;;;;10.38;3.72;;;4.70;99.60;;;;;;4953924;28;20066;-74
2021/12/02 11:20:20;;;;;;;4.97;1.10;;;4.60;99.60;;;;;;4955518;29;20051;-73
2021/12/02 11:22:46;;;;;;;3.75;0.70;;;4.30;99.90;;;;;;4950822;29;20094;-73
2021/12/02 11:25:13;;;;;;;4.13;0.73;;;4.20;99.90;;;;;;4932167;29;20052;-74
2021/12/02 11:27:43;;;;;;;1.80;1.00;;;4.40;99.90;;;;;;4952028;29;20487;-75
2021/12/02 11:30:12;;;;;;;5.43;1.90;;;4.60;99.90;;;;;;4951808;28;20050;-73
2021/12/02 11:32:42;;;;;;;10.48;2.08;;;4.80;99.90;;;;;;4954994;28;20054;-73
2021/12/02 11:35:13;;;;;;;4.82;1.90;;;5.00;99.90;;;;;;4954936;28;20047;-73
2021/12/02 11:37:41;;;;;;;3.63;1.52;;;5.20;99.90;;;;;;4955428;29;20051;-73
2021/12/02 11:40:15;;;;;;;3.75;1.60;;;5.10;99.40;;;;;;4955054;29;20051;-74
2021/12/02 11:42:41;;;;;;;3.03;1.02;;;5.00;99.80;;;;;;4955318;28;20043;-73
2021/12/02 11:45:10;;;;;;;2.67;0.80;;;5.10;99.80;;;;;;4955557;29;20109;-73
2021/12/02 11:47:37;;;;;;;5.28;0.73;;;5.20;99.70;;;;;;4955013;28;20063;-73
2021/12/02 11:50:06;;;;;;;2.65;0.68;;;5.30;99.70;;;;;;4955245;29;20098;-73
2021/12/02 11:52:37;;;;;;;0.98;0.40;;;5.30;99.20;;;;;;4938884;29;20110;-74
2021/12/02 11:55:12;;;;;;;2.38;0.50;;;5.30;99.50;;;;;;4954531;28;20055;-73
2021/12/02 11:57:38;;;;;;;2.17;0.47;;;5.30;99.60;;;;;;4954886;29;20039;-74
2021/12/02 12:00:08;;;;;;;4.00;1.10;;;5.40;99.50;;;;;;4954615;29;20118;-72
2021/12/02 12:02:35;;;;;;;3.00;0.80;;;5.50;99.50;;;;;;4958637;28;20051;-72
2021/12/02 12:05:05;;;;;;;1.02;0.50;;;5.60;99.40;;;;;;4956667;29;20502;-72
2021/12/02 12:07:43;;;;;;;2.03;0.38;;;5.60;99.30;;;;;;4955120;29;20407;-70
2021/12/02 12:10:29;;;;;;;4.03;0.85;;;5.70;99.40;;;;;;4954763;28;20058;-72
2021/12/02 12:13:20;;;;;;;1.08;0.60;;;5.70;99.30;;;;;;4955427;29;20391;-72
2021/12/02 12:16:00;;;;;;;5.97;2.80;;;5.70;99.30;;;;;;4954822;29;20126;-71
2021/12/02 12:18:28;;;;;;;4.03;2.72;;;5.70;99.30;;;;;;4954640;29;20058;-71
2021/12/02 12:21:01;;;;;;;6.28;3.95;;;5.80;99.30;;;;;;4954424;29;20561;-73
2021/12/02 12:23:35;;;;;;;3.92;1.27;;;5.80;99.20;;;;;;4954316;29;20047;-73
2021/12/02 12:26:38;;;;;;;5.05;1.50;;;5.80;99.20;;;;;;4953675;29;20062;-73
2021/12/02 12:29:06;;;;;;;1.20;0.50;;;5.60;99.20;;;;;;4954363;28;20380;-73
2021/12/02 12:32:05;;;;;;;2.75;1.30;;;5.50;99.40;;;;;;4954181;29;20058;-73
2021/12/02 12:37:27;;;;;;;2.92;0.80;;;5.60;99.40;;;;;;4954687;28;20066;-73
2021/12/02 12:40:10;;;;;;;2.78;0.40;;;5.60;99.20;;;;;;4954261;29;20062;-73
2021/12/02 12:42:38;;;;;;;2.90;0.30;;;5.60;99.10;;;;;;4954594;28;20066;-72
2021/12/02 12:45:07;;;;;;;4.38;0.68;;;5.50;99.40;;;;;;4954366;28;20442;-72
2021/12/02 12:47:43;;;;;;;1.35;0.22;;;5.90;99.30;;;;;;4954301;29;20142;-72
2021/12/02 12:50:21;;;;;;;;;;;6.20;98.90;;;;;;4954503;29;20058;-72
2021/12/02 12:53:16;;;;;;;2.88;0.30;;;6.10;98.30;;;;;;4954371;29;19922;-72
2021/12/02 12:56:07;;;;;;;2.15;0.20;;;6.30;98.20;;;;;;4950865;29;20548;-72
2021/12/02 12:58:36;;;;;;;1.30;0.35;;;6.30;98.70;;;;;;4957669;28;20043;-72
2021/12/02 13:01:20;;;;;;;3.47;0.30;;;6.90;98.20;;;;;;4955704;28;20114;-73
2021/12/02 13:04:07;;;;;;;2.03;0.22;;;7.80;97.60;;;;;;4954447;29;20053;-73
2021/12/02 13:06:47;;;;;;;;;;;8.40;96.00;;;;;;4954595;28;20055;-71
2021/12/02 13:09:54;;;;;;;2.42;0.60;;;8.80;96.00;;;;;;4955307;28;20456;-71
2021/12/02 13:12:28;;;;;;;1.58;0.32;;;9.40;95.90;;;;;;4950870;29;20406;-71
2021/12/02 13:14:55;;;;;;;2.83;0.22;;;10.30;95.10;;;;;;4953674;29;20502;-71
2021/12/02 13:17:40;;;;;;;2.60;0.70;;;10.70;94.40;;;;;;4954147;28;20130;-71
2021/12/02 13:20:18;;;;;;;0.60;0.20;;;11.10;94.50;;;;;;4954573;29;20051;-93
2021/12/02 13:23:06;;;;;;;0.80;0.20;;;11.50;94.50;;;;;;4955103;29;20051;-90
2021/12/02 13:25:50;;;;;;;2.22;0.50;;;11.30;93.30;;;;;;4937620;29;20059;-90
2021/12/02 13:28:22;;;;;;;2.35;0.40;;;11.30;93.80;;;;;;4955025;28;20459;-69
2021/12/02 13:30:57;;;;;;;2.03;0.70;;;11.10;93.90;;;;;;4954036;28;20194;-73
2021/12/02 13:33:38;;;;;;;2.60;0.77;;;10.60;94.10;;;;;;4954160;28;20066;-71
2021/12/02 13:36:05;;;;;;;2.00;0.50;;;10.20;94.70;;;;;;4953764;29;20074;-73
2021/12/02 13:38:31;;;;;;;3.35;0.30;;;9.90;94.20;;;;;;4953786;29;20447;-73
2021/12/02 13:41:13;;;;;;;3.13;0.65;;;9.30;94.80;;;;;;4955459;28;20051;-72